sensor_id;sensor_type;location;lat;lon;timestamp;temperature;humidity
1379;DHT22;683;48.738;9.226;2022-07-26T00:00:36;21.60;73.80
1379;DHT22;683;48.738;9.226;2022-07-26T00:03:04;21.50;74.10
1379;DHT22;683;48.738;9.226;2022-07-26T00:05:31;21.50;74.30
1379;DHT22;683;48.738;9.226;2022-07-26T00:08:02;21.50;74.30
1379;DHT22;683;48.738;9.226;2022-07-26T00:10:40;21.50;74.60
1379;DHT22;683;48.738;9.226;2022-07-26T00:13:09;21.50;74.80
1379;DHT22;683;48.738;9.226;2022-07-26T00:15:37;21.40;74.90
1379;DHT22;683;48.738;9.226;2022-07-26T00:18:05;21.40;75.20
1379;DHT22;683;48.738;9.226;2022-07-26T00:20:32;21.40;75.40
1379;DHT22;683;48.738;9.226;2022-07-26T00:23:03;21.40;75.50
1379;DHT22;683;48.738;9.226;2022-07-26T00:25:30;21.40;75.70
1379;DHT22;683;48.738;9.226;2022-07-26T00:27:58;21.40;75.70
1379;DHT22;683;48.738;9.226;2022-07-26T00:30:27;21.40;76.00
1379;DHT22;683;48.738;9.226;2022-07-26T00:32:55;21.40;76.10
1379;DHT22;683;48.738;9.226;2022-07-26T00:35:22;21.40;76.10
1379;DHT22;683;48.738;9.226;2022-07-26T00:37:50;21.40;76.00
1379;DHT22;683;48.738;9.226;2022-07-26T00:40:40;21.40;76.10
1379;DHT22;683;48.738;9.226;2022-07-26T00:43:07;21.40;76.30
1379;DHT22;683;48.738;9.226;2022-07-26T00:45:36;21.40;76.50
1379;DHT22;683;48.738;9.226;2022-07-26T00:48:04;21.40;76.70
1379;DHT22;683;48.738;9.226;2022-07-26T00:50:32;21.40;76.80
1379;DHT22;683;48.738;9.226;2022-07-26T00:52:59;21.40;76.80
1379;DHT22;683;48.738;9.226;2022-07-26T00:55:27;21.50;77.20
1379;DHT22;683;48.738;9.226;2022-07-26T00:57:58;21.40;77.50
1379;DHT22;683;48.738;9.226;2022-07-26T01:00:31;21.40;77.80
1379;DHT22;683;48.738;9.226;2022-07-26T01:03:00;21.50;78.30
1379;DHT22;683;48.738;9.226;2022-07-26T01:05:28;21.40;78.50
1379;DHT22;683;48.738;9.226;2022-07-26T01:07:55;21.40;78.60
1379;DHT22;683;48.738;9.226;2022-07-26T01:10:25;21.40;78.90
1379;DHT22;683;48.738;9.226;2022-07-26T01:12:57;21.40;79.10
1379;DHT22;683;48.738;9.226;2022-07-26T01:15:25;21.40;79.30
1379;DHT22;683;48.738;9.226;2022-07-26T01:17:52;21.40;79.40
1379;DHT22;683;48.738;9.226;2022-07-26T01:20:21;21.40;80.00
1379;DHT22;683;48.738;9.226;2022-07-26T01:22:49;21.40;80.40
1379;DHT22;683;48.738;9.226;2022-07-26T01:25:27;21.40;80.70
1379;DHT22;683;48.738;9.226;2022-07-26T01:27:55;21.40;80.90
1379;DHT22;683;48.738;9.226;2022-07-26T01:30:23;21.40;81.40
1379;DHT22;683;48.738;9.226;2022-07-26T01:32:50;21.30;83.40
1379;DHT22;683;48.738;9.226;2022-07-26T01:35:17;21.10;85.00
1379;DHT22;683;48.738;9.226;2022-07-26T01:37:45;20.90;86.50
1379;DHT22;683;48.738;9.226;2022-07-26T01:40:14;20.70;88.20
1379;DHT22;683;48.738;9.226;2022-07-26T01:42:41;20.50;90.10
1379;DHT22;683;48.738;9.226;2022-07-26T01:45:10;20.40;91.00
1379;DHT22;683;48.738;9.226;2022-07-26T01:47:38;20.20;92.00
1379;DHT22;683;48.738;9.226;2022-07-26T01:50:06;20.10;92.60
1379;DHT22;683;48.738;9.226;2022-07-26T01:52:34;20.00;93.50
1379;DHT22;683;48.738;9.226;2022-07-26T01:55:02;20.00;94.10
1379;DHT22;683;48.738;9.226;2022-07-26T01:57:31;19.90;95.00
1379;DHT22;683;48.738;9.226;2022-07-26T01:59:58;19.90;95.30
1379;DHT22;683;48.738;9.226;2022-07-26T02:02:26;19.90;95.40
1379;DHT22;683;48.738;9.226;2022-07-26T02:04:54;19.90;95.40
1379;DHT22;683;48.738;9.226;2022-07-26T02:07:37;20.00;95.00
1379;DHT22;683;48.738;9.226;2022-07-26T02:10:05;19.90;94.50
1379;DHT22;683;48.738;9.226;2022-07-26T02:12:34;19.90;94.50
1379;DHT22;683;48.738;9.226;2022-07-26T02:15:03;19.90;94.00
1379;DHT22;683;48.738;9.226;2022-07-26T02:17:30;19.90;94.00
1379;DHT22;683;48.738;9.226;2022-07-26T02:19:57;19.90;93.60
1379;DHT22;683;48.738;9.226;2022-07-26T02:22:25;19.90;93.30
1379;DHT22;683;48.738;9.226;2022-07-26T02:24:53;19.90;93.10
1379;DHT22;683;48.738;9.226;2022-07-26T02:27:20;20.00;93.20
1379;DHT22;683;48.738;9.226;2022-07-26T02:29:49;20.00;93.30
1379;DHT22;683;48.738;9.226;2022-07-26T02:32:17;20.00;93.50
1379;DHT22;683;48.738;9.226;2022-07-26T02:34:44;20.00;93.60
1379;DHT22;683;48.738;9.226;2022-07-26T02:37:11;20.00;93.80
1379;DHT22;683;48.738;9.226;2022-07-26T02:39:42;20.00;93.90
1379;DHT22;683;48.738;9.226;2022-07-26T02:42:09;20.10;94.10
1379;DHT22;683;48.738;9.226;2022-07-26T02:44:37;20.10;94.30
1379;DHT22;683;48.738;9.226;2022-07-26T02:47:05;20.10;94.30
1379;DHT22;683;48.738;9.226;2022-07-26T02:49:33;20.00;94.40
1379;DHT22;683;48.738;9.226;2022-07-26T02:52:00;20.00;94.70
1379;DHT22;683;48.738;9.226;2022-07-26T02:54:27;20.10;94.70
1379;DHT22;683;48.738;9.226;2022-07-26T02:56:54;20.00;94.80
1379;DHT22;683;48.738;9.226;2022-07-26T02:59:22;20.00;94.80
1379;DHT22;683;48.738;9.226;2022-07-26T03:01:49;20.00;94.90
1379;DHT22;683;48.738;9.226;2022-07-26T03:04:18;20.10;94.80
1379;DHT22;683;48.738;9.226;2022-07-26T03:06:45;20.00;94.80
1379;DHT22;683;48.738;9.226;2022-07-26T03:09:12;20.00;94.90
1379;DHT22;683;48.738;9.226;2022-07-26T03:12:05;20.00;95.00
1379;DHT22;683;48.738;9.226;2022-07-26T03:14:32;19.90;95.10
1379;DHT22;683;48.738;9.226;2022-07-26T03:16:59;19.90;95.10
1379;DHT22;683;48.738;9.226;2022-07-26T03:19:28;19.90;95.30
1379;DHT22;683;48.738;9.226;2022-07-26T03:21:55;19.90;95.30
1379;DHT22;683;48.738;9.226;2022-07-26T03:24:22;19.90;95.30
1379;DHT22;683;48.738;9.226;2022-07-26T03:26:50;19.90;95.40
1379;DHT22;683;48.738;9.226;2022-07-26T03:29:17;19.80;95.30
1379;DHT22;683;48.738;9.226;2022-07-26T03:31:48;19.80;95.40
1379;DHT22;683;48.738;9.226;2022-07-26T03:34:16;19.80;95.60
1379;DHT22;683;48.738;9.226;2022-07-26T03:36:45;19.80;95.70
1379;DHT22;683;48.738;9.226;2022-07-26T03:39:12;19.80;95.70
1379;DHT22;683;48.738;9.226;2022-07-26T03:41:40;19.80;95.70
1379;DHT22;683;48.738;9.226;2022-07-26T03:44:07;19.70;95.90
1379;DHT22;683;48.738;9.226;2022-07-26T03:46:35;19.70;96.00
1379;DHT22;683;48.738;9.226;2022-07-26T03:49:02;19.60;96.10
1379;DHT22;683;48.738;9.226;2022-07-26T03:51:30;19.50;96.20
1379;DHT22;683;48.738;9.226;2022-07-26T03:54:00;19.50;96.40
1379;DHT22;683;48.738;9.226;2022-07-26T03:56:27;19.40;96.70
1379;DHT22;683;48.738;9.226;2022-07-26T03:58:54;19.40;96.90
1379;DHT22;683;48.738;9.226;2022-07-26T04:01:25;19.30;97.00
1379;DHT22;683;48.738;9.226;2022-07-26T04:03:53;19.30;97.20
1379;DHT22;683;48.738;9.226;2022-07-26T04:06:20;19.30;97.40
1379;DHT22;683;48.738;9.226;2022-07-26T04:08:48;19.20;97.50
1379;DHT22;683;48.738;9.226;2022-07-26T04:11:16;19.20;97.70
1379;DHT22;683;48.738;9.226;2022-07-26T04:13:44;19.10;97.80
1379;DHT22;683;48.738;9.226;2022-07-26T04:16:11;19.10;98.00
1379;DHT22;683;48.738;9.226;2022-07-26T04:18:39;19.10;98.20
1379;DHT22;683;48.738;9.226;2022-07-26T04:21:15;19.10;98.20
1379;DHT22;683;48.738;9.226;2022-07-26T04:23:43;19.10;98.30
1379;DHT22;683;48.738;9.226;2022-07-26T04:26:11;19.10;98.20
1379;DHT22;683;48.738;9.226;2022-07-26T04:28:41;19.10;98.40
1379;DHT22;683;48.738;9.226;2022-07-26T04:31:08;19.00;98.60
1379;DHT22;683;48.738;9.226;2022-07-26T04:33:35;19.00;98.60
1379;DHT22;683;48.738;9.226;2022-07-26T04:36:06;19.10;98.60
1379;DHT22;683;48.738;9.226;2022-07-26T04:38:34;19.10;98.50
1379;DHT22;683;48.738;9.226;2022-07-26T04:41:01;19.10;98.60
1379;DHT22;683;48.738;9.226;2022-07-26T04:43:29;19.10;98.60
1379;DHT22;683;48.738;9.226;2022-07-26T04:45:57;19.00;98.80
1379;DHT22;683;48.738;9.226;2022-07-26T04:48:25;19.00;98.80
1379;DHT22;683;48.738;9.226;2022-07-26T04:50:54;19.00;98.80
1379;DHT22;683;48.738;9.226;2022-07-26T04:53:22;19.10;98.90
1379;DHT22;683;48.738;9.226;2022-07-26T04:55:49;19.10;99.00
1379;DHT22;683;48.738;9.226;2022-07-26T04:58:16;19.10;98.80
1379;DHT22;683;48.738;9.226;2022-07-26T05:00:44;19.10;98.70
1379;DHT22;683;48.738;9.226;2022-07-26T05:03:12;19.20;98.60
1379;DHT22;683;48.738;9.226;2022-07-26T05:06:04;19.20;98.60
1379;DHT22;683;48.738;9.226;2022-07-26T05:08:32;19.30;98.50
1379;DHT22;683;48.738;9.226;2022-07-26T05:10:59;19.30;98.50
1379;DHT22;683;48.738;9.226;2022-07-26T05:13:27;19.40;98.40
1379;DHT22;683;48.738;9.226;2022-07-26T05:15:54;19.40;98.50
1379;DHT22;683;48.738;9.226;2022-07-26T05:18:22;19.30;98.40
1379;DHT22;683;48.738;9.226;2022-07-26T05:20:50;19.40;98.60
1379;DHT22;683;48.738;9.226;2022-07-26T05:23:24;19.40;98.40
1379;DHT22;683;48.738;9.226;2022-07-26T05:25:51;19.40;98.40
1379;DHT22;683;48.738;9.226;2022-07-26T05:28:18;19.40;98.40
1379;DHT22;683;48.738;9.226;2022-07-26T05:30:46;19.60;98.10
1379;DHT22;683;48.738;9.226;2022-07-26T05:33:13;19.70;97.90
1379;DHT22;683;48.738;9.226;2022-07-26T05:35:42;19.90;97.70
1379;DHT22;683;48.738;9.226;2022-07-26T05:38:09;20.00;97.30
1379;DHT22;683;48.738;9.226;2022-07-26T05:40:36;20.20;96.90
1379;DHT22;683;48.738;9.226;2022-07-26T05:43:04;20.30;96.70
1379;DHT22;683;48.738;9.226;2022-07-26T05:45:31;20.50;96.30
1379;DHT22;683;48.738;9.226;2022-07-26T05:47:59;20.60;96.10
1379;DHT22;683;48.738;9.226;2022-07-26T05:50:26;20.50;95.90
1379;DHT22;683;48.738;9.226;2022-07-26T05:52:55;20.50;96.40
1379;DHT22;683;48.738;9.226;2022-07-26T05:55:22;20.40;96.10
1379;DHT22;683;48.738;9.226;2022-07-26T05:57:49;20.30;96.20
1379;DHT22;683;48.738;9.226;2022-07-26T06:00:17;20.10;96.50
1379;DHT22;683;48.738;9.226;2022-07-26T06:02:45;19.90;97.00
1379;DHT22;683;48.738;9.226;2022-07-26T06:05:13;19.90;97.40
1379;DHT22;683;48.738;9.226;2022-07-26T06:07:41;19.90;97.40
1379;DHT22;683;48.738;9.226;2022-07-26T06:10:10;19.90;97.30
1379;DHT22;683;48.738;9.226;2022-07-26T06:12:51;20.10;97.00
1379;DHT22;683;48.738;9.226;2022-07-26T06:15:18;20.20;96.50
1379;DHT22;683;48.738;9.226;2022-07-26T06:17:46;20.30;96.20
1379;DHT22;683;48.738;9.226;2022-07-26T06:20:13;20.30;96.20
1379;DHT22;683;48.738;9.226;2022-07-26T06:22:40;20.50;95.70
1379;DHT22;683;48.738;9.226;2022-07-26T06:25:15;20.50;95.70
1379;DHT22;683;48.738;9.226;2022-07-26T06:27:43;20.40;95.90
1379;DHT22;683;48.738;9.226;2022-07-26T06:30:11;20.30;95.40
1379;DHT22;683;48.738;9.226;2022-07-26T06:32:38;20.10;94.60
1379;DHT22;683;48.738;9.226;2022-07-26T06:35:09;20.10;94.10
1379;DHT22;683;48.738;9.226;2022-07-26T06:37:36;20.00;94.50
1379;DHT22;683;48.738;9.226;2022-07-26T06:40:05;20.10;94.30
1379;DHT22;683;48.738;9.226;2022-07-26T06:42:34;20.10;93.50
1379;DHT22;683;48.738;9.226;2022-07-26T06:45:03;20.30;93.20
1379;DHT22;683;48.738;9.226;2022-07-26T06:47:32;20.60;92.40
1379;DHT22;683;48.738;9.226;2022-07-26T06:50:00;20.90;91.10
1379;DHT22;683;48.738;9.226;2022-07-26T06:52:27;21.00;89.70
1379;DHT22;683;48.738;9.226;2022-07-26T06:54:55;21.30;88.90
1379;DHT22;683;48.738;9.226;2022-07-26T06:57:22;21.60;87.70
1379;DHT22;683;48.738;9.226;2022-07-26T06:59:51;21.70;86.30
1379;DHT22;683;48.738;9.226;2022-07-26T07:02:19;21.80;86.00
1379;DHT22;683;48.738;9.226;2022-07-26T07:04:46;21.70;83.60
1379;DHT22;683;48.738;9.226;2022-07-26T07:07:13;21.60;83.30
1379;DHT22;683;48.738;9.226;2022-07-26T07:09:41;21.60;84.00
1379;DHT22;683;48.738;9.226;2022-07-26T07:12:08;21.60;83.50
1379;DHT22;683;48.738;9.226;2022-07-26T07:14:36;21.70;84.20
1379;DHT22;683;48.738;9.226;2022-07-26T07:17:05;21.90;84.00
1379;DHT22;683;48.738;9.226;2022-07-26T07:19:34;21.90;82.30
1379;DHT22;683;48.738;9.226;2022-07-26T07:22:02;21.80;81.60
1379;DHT22;683;48.738;9.226;2022-07-26T07:24:36;21.60;80.50
1379;DHT22;683;48.738;9.226;2022-07-26T07:27:04;21.60;78.50
1379;DHT22;683;48.738;9.226;2022-07-26T07:29:31;21.70;79.60
1379;DHT22;683;48.738;9.226;2022-07-26T07:31:58;21.80;78.80
1379;DHT22;683;48.738;9.226;2022-07-26T07:34:30;21.80;78.90
1379;DHT22;683;48.738;9.226;2022-07-26T07:36:57;21.90;78.30
1379;DHT22;683;48.738;9.226;2022-07-26T07:39:25;21.90;77.40
1379;DHT22;683;48.738;9.226;2022-07-26T07:41:52;22.10;78.00
1379;DHT22;683;48.738;9.226;2022-07-26T07:44:19;22.20;76.80
1379;DHT22;683;48.738;9.226;2022-07-26T07:46:56;22.40;77.00
1379;DHT22;683;48.738;9.226;2022-07-26T07:49:24;22.50;75.40
1379;DHT22;683;48.738;9.226;2022-07-26T07:51:53;22.60;75.30
1379;DHT22;683;48.738;9.226;2022-07-26T07:54:20;22.60;74.60
1379;DHT22;683;48.738;9.226;2022-07-26T07:56:47;22.70;75.00
1379;DHT22;683;48.738;9.226;2022-07-26T07:59:15;22.90;75.70
1379;DHT22;683;48.738;9.226;2022-07-26T08:01:42;22.90;73.40
1379;DHT22;683;48.738;9.226;2022-07-26T08:04:09;23.10;73.60
1379;DHT22;683;48.738;9.226;2022-07-26T08:06:37;23.20;73.50
1379;DHT22;683;48.738;9.226;2022-07-26T08:09:05;23.30;71.60
1379;DHT22;683;48.738;9.226;2022-07-26T08:11:33;23.40;72.90
1379;DHT22;683;48.738;9.226;2022-07-26T08:14:00;23.50;70.90
1379;DHT22;683;48.738;9.226;2022-07-26T08:16:28;23.40;69.00
1379;DHT22;683;48.738;9.226;2022-07-26T08:18:56;23.00;70.00
1379;DHT22;683;48.738;9.226;2022-07-26T08:21:23;22.80;70.50
1379;DHT22;683;48.738;9.226;2022-07-26T08:23:51;22.90;70.20
1379;DHT22;683;48.738;9.226;2022-07-26T08:26:19;22.60;70.00
1379;DHT22;683;48.738;9.226;2022-07-26T08:28:47;22.80;70.40
1379;DHT22;683;48.738;9.226;2022-07-26T08:31:14;23.10;69.00
1379;DHT22;683;48.738;9.226;2022-07-26T08:33:42;23.30;68.10
1379;DHT22;683;48.738;9.226;2022-07-26T08:36:09;23.60;68.20
1379;DHT22;683;48.738;9.226;2022-07-26T08:38:36;23.70;67.20
1379;DHT22;683;48.738;9.226;2022-07-26T08:41:04;23.40;66.00
1379;DHT22;683;48.738;9.226;2022-07-26T08:43:33;23.40;68.60
1379;DHT22;683;48.738;9.226;2022-07-26T08:46:00;23.60;66.90
1379;DHT22;683;48.738;9.226;2022-07-26T08:48:28;23.60;66.00
1379;DHT22;683;48.738;9.226;2022-07-26T08:50:56;23.90;65.40
1379;DHT22;683;48.738;9.226;2022-07-26T08:53:24;24.40;65.30
1379;DHT22;683;48.738;9.226;2022-07-26T08:55:55;24.40;64.90
1379;DHT22;683;48.738;9.226;2022-07-26T08:58:34;24.00;64.90
1379;DHT22;683;48.738;9.226;2022-07-26T09:01:06;23.80;64.30
1379;DHT22;683;48.738;9.226;2022-07-26T09:03:34;23.80;64.40
1379;DHT22;683;48.738;9.226;2022-07-26T09:06:16;23.60;64.40
1379;DHT22;683;48.738;9.226;2022-07-26T09:08:45;23.40;64.50
1379;DHT22;683;48.738;9.226;2022-07-26T09:11:27;23.30;65.50
1379;DHT22;683;48.738;9.226;2022-07-26T09:13:57;23.50;65.20
1379;DHT22;683;48.738;9.226;2022-07-26T09:16:25;23.80;63.60
1379;DHT22;683;48.738;9.226;2022-07-26T09:18:53;24.10;61.80
1379;DHT22;683;48.738;9.226;2022-07-26T09:21:30;24.40;61.60
1379;DHT22;683;48.738;9.226;2022-07-26T09:23:58;24.80;60.10
1379;DHT22;683;48.738;9.226;2022-07-26T09:26:26;24.70;61.30
1379;DHT22;683;48.738;9.226;2022-07-26T09:29:10;24.50;60.80
1379;DHT22;683;48.738;9.226;2022-07-26T09:31:38;24.40;60.50
1379;DHT22;683;48.738;9.226;2022-07-26T09:34:06;24.60;60.90
1379;DHT22;683;48.738;9.226;2022-07-26T09:36:49;24.90;60.70
1379;DHT22;683;48.738;9.226;2022-07-26T09:39:17;25.10;59.90
1379;DHT22;683;48.738;9.226;2022-07-26T09:41:44;25.30;59.60
1379;DHT22;683;48.738;9.226;2022-07-26T09:44:21;25.00;58.60
1379;DHT22;683;48.738;9.226;2022-07-26T09:46:53;24.70;59.60
1379;DHT22;683;48.738;9.226;2022-07-26T09:49:22;24.90;59.40
1379;DHT22;683;48.738;9.226;2022-07-26T09:51:51;25.20;59.70
1379;DHT22;683;48.738;9.226;2022-07-26T09:54:30;25.20;58.90
1379;DHT22;683;48.738;9.226;2022-07-26T09:57:02;25.00;59.30
1379;DHT22;683;48.738;9.226;2022-07-26T09:59:31;24.80;58.90
1379;DHT22;683;48.738;9.226;2022-07-26T10:01:59;24.70;59.40
1379;DHT22;683;48.738;9.226;2022-07-26T10:04:27;24.80;59.70
1379;DHT22;683;48.738;9.226;2022-07-26T10:06:54;24.60;58.60
1379;DHT22;683;48.738;9.226;2022-07-26T10:09:23;24.30;58.80
1379;DHT22;683;48.738;9.226;2022-07-26T10:11:55;24.10;59.50
1379;DHT22;683;48.738;9.226;2022-07-26T10:14:38;24.50;60.10
1379;DHT22;683;48.738;9.226;2022-07-26T10:17:38;24.70;58.60
1379;DHT22;683;48.738;9.226;2022-07-26T10:20:07;25.10;58.80
1379;DHT22;683;48.738;9.226;2022-07-26T10:22:43;25.10;58.50
1379;DHT22;683;48.738;9.226;2022-07-26T10:25:44;24.60;59.80
1379;DHT22;683;48.738;9.226;2022-07-26T10:28:23;24.30;61.30
1379;DHT22;683;48.738;9.226;2022-07-26T10:31:23;24.30;62.40
1379;DHT22;683;48.738;9.226;2022-07-26T10:33:52;24.50;61.60
1379;DHT22;683;48.738;9.226;2022-07-26T10:36:21;24.20;62.50
1379;DHT22;683;48.738;9.226;2022-07-26T10:39:13;24.40;63.10
1379;DHT22;683;48.738;9.226;2022-07-26T10:41:43;24.40;62.90
1379;DHT22;683;48.738;9.226;2022-07-26T10:44:24;24.50;61.90
1379;DHT22;683;48.738;9.226;2022-07-26T10:47:10;24.80;61.50
1379;DHT22;683;48.738;9.226;2022-07-26T10:49:42;25.40;59.40
1379;DHT22;683;48.738;9.226;2022-07-26T10:52:20;25.30;58.40
1379;DHT22;683;48.738;9.226;2022-07-26T10:55:15;24.90;57.90
1379;DHT22;683;48.738;9.226;2022-07-26T10:57:47;24.70;59.30
1379;DHT22;683;48.738;9.226;2022-07-26T11:00:21;24.60;58.60
1379;DHT22;683;48.738;9.226;2022-07-26T11:03:00;24.70;58.90
1379;DHT22;683;48.738;9.226;2022-07-26T11:05:30;25.00;59.40
1379;DHT22;683;48.738;9.226;2022-07-26T11:08:06;25.00;60.10
1379;DHT22;683;48.738;9.226;2022-07-26T11:10:37;25.00;59.60
1379;DHT22;683;48.738;9.226;2022-07-26T11:13:11;25.10;58.20
1379;DHT22;683;48.738;9.226;2022-07-26T11:15:41;24.60;58.80
1379;DHT22;683;48.738;9.226;2022-07-26T11:18:25;24.20;59.30
1379;DHT22;683;48.738;9.226;2022-07-26T11:20:56;24.40;60.70
1379;DHT22;683;48.738;9.226;2022-07-26T11:23:30;24.40;61.90
1379;DHT22;683;48.738;9.226;2022-07-26T11:26:12;24.80;61.50
1379;DHT22;683;48.738;9.226;2022-07-26T11:28:51;25.40;59.40
1379;DHT22;683;48.738;9.226;2022-07-26T11:31:33;25.90;58.20
1379;DHT22;683;48.738;9.226;2022-07-26T11:34:28;26.30;57.80
1379;DHT22;683;48.738;9.226;2022-07-26T11:36:57;26.30;55.80
1379;DHT22;683;48.738;9.226;2022-07-26T11:39:50;25.90;57.10
1379;DHT22;683;48.738;9.226;2022-07-26T11:42:17;25.30;57.50
1379;DHT22;683;48.738;9.226;2022-07-26T11:44:49;25.00;58.00
1379;DHT22;683;48.738;9.226;2022-07-26T11:47:20;24.80;58.60
1379;DHT22;683;48.738;9.226;2022-07-26T11:49:49;25.10;58.20
1379;DHT22;683;48.738;9.226;2022-07-26T11:52:16;25.20;57.60
1379;DHT22;683;48.738;9.226;2022-07-26T11:54:45;25.20;57.10
1379;DHT22;683;48.738;9.226;2022-07-26T11:57:13;25.60;58.70
1379;DHT22;683;48.738;9.226;2022-07-26T11:59:43;26.10;56.00
1379;DHT22;683;48.738;9.226;2022-07-26T12:02:11;26.10;55.70
1379;DHT22;683;48.738;9.226;2022-07-26T12:04:40;25.80;55.10
1379;DHT22;683;48.738;9.226;2022-07-26T12:07:10;26.00;56.00
1379;DHT22;683;48.738;9.226;2022-07-26T12:09:39;26.20;54.70
1379;DHT22;683;48.738;9.226;2022-07-26T12:12:09;26.20;54.90
1379;DHT22;683;48.738;9.226;2022-07-26T12:14:38;26.20;54.40
1379;DHT22;683;48.738;9.226;2022-07-26T12:17:12;26.00;54.80
1379;DHT22;683;48.738;9.226;2022-07-26T12:19:46;26.20;54.70
1379;DHT22;683;48.738;9.226;2022-07-26T12:22:16;26.40;53.90
1379;DHT22;683;48.738;9.226;2022-07-26T12:24:53;26.90;53.70
1379;DHT22;683;48.738;9.226;2022-07-26T12:27:23;27.30;51.70
1379;DHT22;683;48.738;9.226;2022-07-26T12:29:52;27.70;50.90
1379;DHT22;683;48.738;9.226;2022-07-26T12:32:21;28.10;49.30
1379;DHT22;683;48.738;9.226;2022-07-26T12:34:57;29.40;49.60
1379;DHT22;683;48.738;9.226;2022-07-26T12:37:26;29.90;46.30
1379;DHT22;683;48.738;9.226;2022-07-26T12:40:05;30.90;43.90
1379;DHT22;683;48.738;9.226;2022-07-26T12:42:34;30.90;44.20
1379;DHT22;683;48.738;9.226;2022-07-26T12:45:11;30.50;45.50
1379;DHT22;683;48.738;9.226;2022-07-26T12:47:40;29.30;45.90
1379;DHT22;683;48.738;9.226;2022-07-26T12:50:09;29.60;45.90
1379;DHT22;683;48.738;9.226;2022-07-26T12:52:39;30.90;44.20
1379;DHT22;683;48.738;9.226;2022-07-26T12:55:08;31.30;42.10
1379;DHT22;683;48.738;9.226;2022-07-26T12:57:40;32.50;41.50
1379;DHT22;683;48.738;9.226;2022-07-26T13:00:35;34.40;40.20
1379;DHT22;683;48.738;9.226;2022-07-26T13:03:02;35.60;37.20
1379;DHT22;683;48.738;9.226;2022-07-26T13:05:29;33.60;36.70
1379;DHT22;683;48.738;9.226;2022-07-26T13:07:58;33.20;37.60
1379;DHT22;683;48.738;9.226;2022-07-26T13:10:26;33.70;38.30
1379;DHT22;683;48.738;9.226;2022-07-26T13:12:56;33.40;37.60
1379;DHT22;683;48.738;9.226;2022-07-26T13:15:23;32.30;39.50
1379;DHT22;683;48.738;9.226;2022-07-26T13:17:56;31.80;39.80
1379;DHT22;683;48.738;9.226;2022-07-26T13:20:24;32.40;41.30
1379;DHT22;683;48.738;9.226;2022-07-26T13:22:52;33.20;38.40
1379;DHT22;683;48.738;9.226;2022-07-26T13:25:20;33.80;36.80
1379;DHT22;683;48.738;9.226;2022-07-26T13:27:48;33.90;36.80
1379;DHT22;683;48.738;9.226;2022-07-26T13:30:15;34.40;36.60
1379;DHT22;683;48.738;9.226;2022-07-26T13:32:46;34.10;37.00
1379;DHT22;683;48.738;9.226;2022-07-26T13:35:13;34.10;34.40
1379;DHT22;683;48.738;9.226;2022-07-26T13:37:41;33.70;34.70
1379;DHT22;683;48.738;9.226;2022-07-26T13:40:09;34.00;36.80
1379;DHT22;683;48.738;9.226;2022-07-26T13:42:38;34.50;35.40
1379;DHT22;683;48.738;9.226;2022-07-26T13:45:07;33.80;36.50
1379;DHT22;683;48.738;9.226;2022-07-26T13:47:37;34.40;35.80
1379;DHT22;683;48.738;9.226;2022-07-26T13:50:06;33.70;35.70
1379;DHT22;683;48.738;9.226;2022-07-26T13:52:33;34.10;35.10
1379;DHT22;683;48.738;9.226;2022-07-26T13:55:03;32.90;35.70
1379;DHT22;683;48.738;9.226;2022-07-26T13:57:33;32.70;36.30
1379;DHT22;683;48.738;9.226;2022-07-26T14:00:02;33.60;36.00
1379;DHT22;683;48.738;9.226;2022-07-26T14:02:31;32.70;37.00
1379;DHT22;683;48.738;9.226;2022-07-26T14:04:58;32.30;37.00
1379;DHT22;683;48.738;9.226;2022-07-26T14:07:25;31.50;38.40
1379;DHT22;683;48.738;9.226;2022-07-26T14:09:53;30.10;39.10
1379;DHT22;683;48.738;9.226;2022-07-26T14:12:20;28.90;40.70
1379;DHT22;683;48.738;9.226;2022-07-26T14:14:47;28.60;41.60
1379;DHT22;683;48.738;9.226;2022-07-26T14:17:16;29.90;40.80
1379;DHT22;683;48.738;9.226;2022-07-26T14:19:43;30.90;39.30
1379;DHT22;683;48.738;9.226;2022-07-26T14:22:11;31.70;37.00
1379;DHT22;683;48.738;9.226;2022-07-26T14:24:38;30.90;38.00
1379;DHT22;683;48.738;9.226;2022-07-26T14:27:05;30.30;38.50
1379;DHT22;683;48.738;9.226;2022-07-26T14:29:33;29.60;38.60
1379;DHT22;683;48.738;9.226;2022-07-26T14:32:01;30.70;38.30
1379;DHT22;683;48.738;9.226;2022-07-26T14:34:30;33.50;35.10
1379;DHT22;683;48.738;9.226;2022-07-26T14:36:57;35.80;33.20
1379;DHT22;683;48.738;9.226;2022-07-26T14:39:24;37.40;30.30
1379;DHT22;683;48.738;9.226;2022-07-26T14:41:52;37.80;28.50
1379;DHT22;683;48.738;9.226;2022-07-26T14:44:19;38.20;29.20
1379;DHT22;683;48.738;9.226;2022-07-26T14:46:47;38.00;29.70
1379;DHT22;683;48.738;9.226;2022-07-26T14:49:14;37.60;28.50
1379;DHT22;683;48.738;9.226;2022-07-26T14:51:43;37.70;28.10
1379;DHT22;683;48.738;9.226;2022-07-26T14:54:11;37.90;29.20
1379;DHT22;683;48.738;9.226;2022-07-26T14:56:39;37.90;28.80
1379;DHT22;683;48.738;9.226;2022-07-26T14:59:06;38.60;28.30
1379;DHT22;683;48.738;9.226;2022-07-26T15:01:34;38.50;27.30
1379;DHT22;683;48.738;9.226;2022-07-26T15:04:01;39.40;27.10
1379;DHT22;683;48.738;9.226;2022-07-26T15:06:30;39.40;27.50
1379;DHT22;683;48.738;9.226;2022-07-26T15:08:58;38.90;28.20
1379;DHT22;683;48.738;9.226;2022-07-26T15:11:26;38.50;28.20
1379;DHT22;683;48.738;9.226;2022-07-26T15:13:53;39.20;28.70
1379;DHT22;683;48.738;9.226;2022-07-26T15:16:20;39.90;27.10
1379;DHT22;683;48.738;9.226;2022-07-26T15:18:48;39.70;27.50
1379;DHT22;683;48.738;9.226;2022-07-26T15:21:15;39.30;28.10
1379;DHT22;683;48.738;9.226;2022-07-26T15:23:42;37.60;28.00
1379;DHT22;683;48.738;9.226;2022-07-26T15:26:11;34.10;30.90
1379;DHT22;683;48.738;9.226;2022-07-26T15:28:39;31.80;34.00
1379;DHT22;683;48.738;9.226;2022-07-26T15:31:07;31.20;36.40
1379;DHT22;683;48.738;9.226;2022-07-26T15:33:36;32.80;34.80
1379;DHT22;683;48.738;9.226;2022-07-26T15:36:04;35.30;33.40
1379;DHT22;683;48.738;9.226;2022-07-26T15:38:32;37.60;30.20
1379;DHT22;683;48.738;9.226;2022-07-26T15:41:00;38.90;28.20
1379;DHT22;683;48.738;9.226;2022-07-26T15:43:28;39.00;27.80
1379;DHT22;683;48.738;9.226;2022-07-26T15:45:56;37.90;28.40
1379;DHT22;683;48.738;9.226;2022-07-26T15:48:23;35.00;29.90
1379;DHT22;683;48.738;9.226;2022-07-26T15:50:50;32.90;33.70
1379;DHT22;683;48.738;9.226;2022-07-26T15:53:18;32.50;34.50
1379;DHT22;683;48.738;9.226;2022-07-26T15:55:45;32.50;33.70
1379;DHT22;683;48.738;9.226;2022-07-26T15:58:13;31.80;34.60
1379;DHT22;683;48.738;9.226;2022-07-26T16:00:42;32.00;35.20
1379;DHT22;683;48.738;9.226;2022-07-26T16:03:10;32.50;35.40
1379;DHT22;683;48.738;9.226;2022-07-26T16:05:37;32.10;34.70
1379;DHT22;683;48.738;9.226;2022-07-26T16:08:05;33.50;34.10
1379;DHT22;683;48.738;9.226;2022-07-26T16:10:32;34.40;31.70
1379;DHT22;683;48.738;9.226;2022-07-26T16:13:00;34.60;30.80
1379;DHT22;683;48.738;9.226;2022-07-26T16:15:27;34.90;30.80
1379;DHT22;683;48.738;9.226;2022-07-26T16:17:58;36.30;29.70
1379;DHT22;683;48.738;9.226;2022-07-26T16:20:26;36.30;28.50
1379;DHT22;683;48.738;9.226;2022-07-26T16:22:53;35.40;29.90
1379;DHT22;683;48.738;9.226;2022-07-26T16:25:20;35.30;30.50
1379;DHT22;683;48.738;9.226;2022-07-26T16:27:48;36.50;30.30
1379;DHT22;683;48.738;9.226;2022-07-26T16:30:18;36.30;28.80
1379;DHT22;683;48.738;9.226;2022-07-26T16:32:46;34.20;30.40